sensor_id;sensor_type;location;lat;lon;timestamp;P1;durP1;ratioP1;P2;durP2;ratioP2
14754;SDS011;7469;50.906;6.952;2024-03-17T00:00:37;8.20;;;4.77;;
14754;SDS011;7469;50.906;6.952;2024-03-17T00:03:05;8.77;;;5.63;;
14754;SDS011;7469;50.906;6.952;2024-03-17T00:05:33;10.87;;;5.50;;
14754;SDS011;7469;50.906;6.952;2024-03-17T00:08:01;7.97;;;5.17;;
14754;SDS011;7469;50.906;6.952;2024-03-17T00:10:30;10.93;;;5.50;;
14754;SDS011;7469;50.906;6.952;2024-03-17T00:12:56;11.67;;;5.30;;
14754;SDS011;7469;50.906;6.952;2024-03-17T00:15:23;12.20;;;5.27;;
14754;SDS011;7469;50.906;6.952;2024-03-17T00:17:50;7.97;;;4.77;;
14754;SDS011;7469;50.906;6.952;2024-03-17T00:20:17;8.67;;;5.23;;
14754;SDS011;7469;50.906;6.952;2024-03-17T00:22:44;8.77;;;5.30;;
14754;SDS011;7469;50.906;6.952;2024-03-17T00:25:13;10.70;;;5.93;;
14754;SDS011;7469;50.906;6.952;2024-03-17T00:27:39;9.23;;;5.70;;
14754;SDS011;7469;50.906;6.952;2024-03-17T00:30:09;16.03;;;6.00;;
14754;SDS011;7469;50.906;6.952;2024-03-17T00:32:38;11.30;;;6.27;;
14754;SDS011;7469;50.906;6.952;2024-03-17T00:35:06;9.20;;;6.17;;
14754;SDS011;7469;50.906;6.952;2024-03-17T00:37:33;10.83;;;6.27;;
14754;SDS011;7469;50.906;6.952;2024-03-17T00:40:00;10.63;;;6.47;;
14754;SDS011;7469;50.906;6.952;2024-03-17T00:42:28;11.80;;;6.23;;
14754;SDS011;7469;50.906;6.952;2024-03-17T00:44:55;10.30;;;6.80;;
14754;SDS011;7469;50.906;6.952;2024-03-17T00:47:22;13.43;;;6.90;;
14754;SDS011;7469;50.906;6.952;2024-03-17T00:49:48;11.30;;;7.10;;
14754;SDS011;7469;50.906;6.952;2024-03-17T00:52:15;11.47;;;6.80;;
14754;SDS011;7469;50.906;6.952;2024-03-17T00:54:41;11.87;;;7.20;;
14754;SDS011;7469;50.906;6.952;2024-03-17T00:57:08;8.63;;;6.83;;
14754;SDS011;7469;50.906;6.952;2024-03-17T00:59:36;12.30;;;7.00;;
14754;SDS011;7469;50.906;6.952;2024-03-17T01:02:03;9.70;;;7.17;;
14754;SDS011;7469;50.906;6.952;2024-03-17T01:04:29;9.70;;;7.00;;
14754;SDS011;7469;50.906;6.952;2024-03-17T01:06:59;12.03;;;7.20;;
14754;SDS011;7469;50.906;6.952;2024-03-17T01:09:25;12.87;;;7.80;;
14754;SDS011;7469;50.906;6.952;2024-03-17T01:11:52;11.80;;;7.07;;
14754;SDS011;7469;50.906;6.952;2024-03-17T01:14:18;11.73;;;7.43;;
14754;SDS011;7469;50.906;6.952;2024-03-17T01:16:46;11.87;;;7.23;;
14754;SDS011;7469;50.906;6.952;2024-03-17T01:19:12;15.87;;;7.77;;
14754;SDS011;7469;50.906;6.952;2024-03-17T01:21:39;14.00;;;7.80;;
14754;SDS011;7469;50.906;6.952;2024-03-17T01:24:05;13.33;;;7.57;;
14754;SDS011;7469;50.906;6.952;2024-03-17T01:26:32;10.77;;;7.73;;
14754;SDS011;7469;50.906;6.952;2024-03-17T01:28:58;11.90;;;7.80;;
14754;SDS011;7469;50.906;6.952;2024-03-17T01:31:26;14.77;;;7.37;;
14754;SDS011;7469;50.906;6.952;2024-03-17T01:33:53;10.27;;;6.87;;
14754;SDS011;7469;50.906;6.952;2024-03-17T01:36:21;13.07;;;7.57;;
14754;SDS011;7469;50.906;6.952;2024-03-17T01:38:47;12.17;;;7.43;;
14754;SDS011;7469;50.906;6.952;2024-03-17T01:41:14;13.03;;;7.27;;
14754;SDS011;7469;50.906;6.952;2024-03-17T01:43:40;11.70;;;7.60;;
14754;SDS011;7469;50.906;6.952;2024-03-17T01:46:08;13.93;;;7.90;;
14754;SDS011;7469;50.906;6.952;2024-03-17T01:48:38;11.80;;;7.50;;
14754;SDS011;7469;50.906;6.952;2024-03-17T01:51:07;13.97;;;7.40;;
14754;SDS011;7469;50.906;6.952;2024-03-17T01:53:35;9.60;;;6.60;;
14754;SDS011;7469;50.906;6.952;2024-03-17T01:56:04;11.00;;;7.00;;
14754;SDS011;7469;50.906;6.952;2024-03-17T01:58:30;10.73;;;7.17;;
14754;SDS011;7469;50.906;6.952;2024-03-17T02:00:58;9.73;;;6.83;;
14754;SDS011;7469;50.906;6.952;2024-03-17T02:03:24;11.03;;;7.20;;
14754;SDS011;7469;50.906;6.952;2024-03-17T02:05:51;10.90;;;6.83;;
14754;SDS011;7469;50.906;6.952;2024-03-17T02:08:18;11.00;;;7.50;;
14754;SDS011;7469;50.906;6.952;2024-03-17T02:10:49;8.50;;;6.80;;
14754;SDS011;7469;50.906;6.952;2024-03-17T02:13:18;11.10;;;6.70;;
14754;SDS011;7469;50.906;6.952;2024-03-17T02:15:45;14.57;;;7.77;;
14754;SDS011;7469;50.906;6.952;2024-03-17T02:18:12;11.63;;;6.50;;
14754;SDS011;7469;50.906;6.952;2024-03-17T02:20:39;10.00;;;6.93;;
14754;SDS011;7469;50.906;6.952;2024-03-17T02:23:27;9.93;;;6.73;;
14754;SDS011;7469;50.906;6.952;2024-03-17T02:25:54;9.93;;;6.47;;
14754;SDS011;7469;50.906;6.952;2024-03-17T02:28:20;8.53;;;7.10;;
14754;SDS011;7469;50.906;6.952;2024-03-17T02:30:47;12.20;;;6.37;;
14754;SDS011;7469;50.906;6.952;2024-03-17T02:33:13;8.50;;;6.23;;
14754;SDS011;7469;50.906;6.952;2024-03-17T02:35:40;12.77;;;6.57;;
14754;SDS011;7469;50.906;6.952;2024-03-17T02:38:06;9.17;;;6.87;;
14754;SDS011;7469;50.906;6.952;2024-03-17T02:40:35;11.07;;;7.07;;
14754;SDS011;7469;50.906;6.952;2024-03-17T02:43:01;10.10;;;6.47;;
14754;SDS011;7469;50.906;6.952;2024-03-17T02:45:28;12.60;;;6.80;;
14754;SDS011;7469;50.906;6.952;2024-03-17T02:47:55;9.57;;;6.77;;
14754;SDS011;7469;50.906;6.952;2024-03-17T02:50:22;11.93;;;6.13;;
14754;SDS011;7469;50.906;6.952;2024-03-17T02:52:49;10.33;;;5.90;;
14754;SDS011;7469;50.906;6.952;2024-03-17T02:55:16;11.60;;;6.23;;
14754;SDS011;7469;50.906;6.952;2024-03-17T02:57:45;7.90;;;6.27;;
14754;SDS011;7469;50.906;6.952;2024-03-17T03:00:12;8.37;;;6.80;;
14754;SDS011;7469;50.906;6.952;2024-03-17T03:02:39;9.60;;;6.93;;
14754;SDS011;7469;50.906;6.952;2024-03-17T03:05:06;8.23;;;6.10;;
14754;SDS011;7469;50.906;6.952;2024-03-17T03:07:34;10.53;;;7.17;;
14754;SDS011;7469;50.906;6.952;2024-03-17T03:10:01;8.97;;;6.23;;
14754;SDS011;7469;50.906;6.952;2024-03-17T03:12:28;10.97;;;6.57;;
14754;SDS011;7469;50.906;6.952;2024-03-17T03:14:56;10.47;;;6.70;;
14754;SDS011;7469;50.906;6.952;2024-03-17T03:17:23;9.97;;;6.10;;
14754;SDS011;7469;50.906;6.952;2024-03-17T03:19:50;11.53;;;6.57;;
14754;SDS011;7469;50.906;6.952;2024-03-17T03:22:17;11.20;;;6.43;;
14754;SDS011;7469;50.906;6.952;2024-03-17T03:24:46;11.37;;;6.40;;
14754;SDS011;7469;50.906;6.952;2024-03-17T03:27:14;9.80;;;6.70;;
14754;SDS011;7469;50.906;6.952;2024-03-17T03:29:40;12.60;;;6.13;;
14754;SDS011;7469;50.906;6.952;2024-03-17T03:32:09;10.80;;;6.10;;
14754;SDS011;7469;50.906;6.952;2024-03-17T03:34:36;8.07;;;6.30;;
14754;SDS011;7469;50.906;6.952;2024-03-17T03:37:04;8.33;;;6.40;;
14754;SDS011;7469;50.906;6.952;2024-03-17T03:39:32;9.40;;;6.17;;
14754;SDS011;7469;50.906;6.952;2024-03-17T03:42:01;10.07;;;6.40;;
14754;SDS011;7469;50.906;6.952;2024-03-17T03:44:28;10.13;;;6.50;;
14754;SDS011;7469;50.906;6.952;2024-03-17T03:46:55;9.33;;;6.20;;
14754;SDS011;7469;50.906;6.952;2024-03-17T03:49:25;11.90;;;6.70;;
14754;SDS011;7469;50.906;6.952;2024-03-17T03:51:52;8.83;;;6.27;;
14754;SDS011;7469;50.906;6.952;2024-03-17T03:54:19;10.13;;;6.10;;
14754;SDS011;7469;50.906;6.952;2024-03-17T03:56:46;10.83;;;6.43;;
14754;SDS011;7469;50.906;6.952;2024-03-17T03:59:13;8.43;;;6.40;;
14754;SDS011;7469;50.906;6.952;2024-03-17T04:01:40;6.60;;;5.77;;
14754;SDS011;7469;50.906;6.952;2024-03-17T04:04:07;10.20;;;6.10;;
14754;SDS011;7469;50.906;6.952;2024-03-17T04:06:36;10.50;;;6.13;;
14754;SDS011;7469;50.906;6.952;2024-03-17T04:09:03;10.73;;;7.00;;
14754;SDS011;7469;50.906;6.952;2024-03-17T04:11:32;10.50;;;6.80;;
14754;SDS011;7469;50.906;6.952;2024-03-17T04:13:59;10.90;;;6.27;;
14754;SDS011;7469;50.906;6.952;2024-03-17T04:16:26;8.80;;;5.90;;
14754;SDS011;7469;50.906;6.952;2024-03-17T04:18:56;10.60;;;5.83;;
14754;SDS011;7469;50.906;6.952;2024-03-17T04:21:23;10.57;;;6.50;;
14754;SDS011;7469;50.906;6.952;2024-03-17T04:23:52;10.33;;;6.13;;
14754;SDS011;7469;50.906;6.952;2024-03-17T04:26:19;9.73;;;6.20;;
14754;SDS011;7469;50.906;6.952;2024-03-17T04:28:46;10.13;;;6.27;;
14754;SDS011;7469;50.906;6.952;2024-03-17T04:31:13;9.47;;;6.90;;
14754;SDS011;7469;50.906;6.952;2024-03-17T04:33:40;11.27;;;6.43;;
14754;SDS011;7469;50.906;6.952;2024-03-17T04:36:07;9.20;;;5.87;;
14754;SDS011;7469;50.906;6.952;2024-03-17T04:38:35;10.07;;;6.67;;
14754;SDS011;7469;50.906;6.952;2024-03-17T04:41:04;9.00;;;6.43;;
14754;SDS011;7469;50.906;6.952;2024-03-17T04:43:33;9.80;;;6.80;;
14754;SDS011;7469;50.906;6.952;2024-03-17T04:46:01;11.53;;;6.33;;
14754;SDS011;7469;50.906;6.952;2024-03-17T04:48:31;8.53;;;6.17;;
14754;SDS011;7469;50.906;6.952;2024-03-17T04:50:58;8.93;;;5.93;;
14754;SDS011;7469;50.906;6.952;2024-03-17T04:53:26;8.00;;;6.10;;
14754;SDS011;7469;50.906;6.952;2024-03-17T04:55:58;10.43;;;6.63;;
14754;SDS011;7469;50.906;6.952;2024-03-17T04:58:31;8.70;;;6.10;;
14754;SDS011;7469;50.906;6.952;2024-03-17T05:01:02;10.00;;;6.00;;
14754;SDS011;7469;50.906;6.952;2024-03-17T05:03:30;9.07;;;6.77;;
14754;SDS011;7469;50.906;6.952;2024-03-17T05:06:00;11.73;;;6.37;;
14754;SDS011;7469;50.906;6.952;2024-03-17T05:08:28;8.33;;;5.80;;
14754;SDS011;7469;50.906;6.952;2024-03-17T05:10:56;10.37;;;6.57;;
14754;SDS011;7469;50.906;6.952;2024-03-17T05:13:25;8.97;;;6.07;;
14754;SDS011;7469;50.906;6.952;2024-03-17T05:15:52;8.67;;;6.13;;
14754;SDS011;7469;50.906;6.952;2024-03-17T05:18:19;8.37;;;6.13;;
14754;SDS011;7469;50.906;6.952;2024-03-17T05:20:48;8.17;;;6.33;;
14754;SDS011;7469;50.906;6.952;2024-03-17T05:23:24;8.63;;;5.93;;
14754;SDS011;7469;50.906;6.952;2024-03-17T05:25:52;7.80;;;6.23;;
14754;SDS011;7469;50.906;6.952;2024-03-17T05:28:19;9.90;;;6.10;;
14754;SDS011;7469;50.906;6.952;2024-03-17T05:30:48;7.83;;;6.00;;
14754;SDS011;7469;50.906;6.952;2024-03-17T05:33:16;12.13;;;6.17;;
14754;SDS011;7469;50.906;6.952;2024-03-17T05:35:48;8.37;;;5.17;;
14754;SDS011;7469;50.906;6.952;2024-03-17T05:38:15;12.37;;;6.10;;
14754;SDS011;7469;50.906;6.952;2024-03-17T05:40:43;8.03;;;6.67;;
14754;SDS011;7469;50.906;6.952;2024-03-17T05:43:10;10.90;;;6.43;;
14754;SDS011;7469;50.906;6.952;2024-03-17T05:45:37;7.40;;;5.80;;
14754;SDS011;7469;50.906;6.952;2024-03-17T05:48:06;9.83;;;6.30;;
14754;SDS011;7469;50.906;6.952;2024-03-17T05:50:35;8.40;;;5.60;;
14754;SDS011;7469;50.906;6.952;2024-03-17T05:53:02;8.20;;;5.90;;
14754;SDS011;7469;50.906;6.952;2024-03-17T05:55:29;8.97;;;6.03;;
14754;SDS011;7469;50.906;6.952;2024-03-17T05:57:56;12.70;;;6.27;;
14754;SDS011;7469;50.906;6.952;2024-03-17T06:00:23;12.80;;;6.03;;
14754;SDS011;7469;50.906;6.952;2024-03-17T06:02:50;9.67;;;5.90;;
14754;SDS011;7469;50.906;6.952;2024-03-17T06:05:18;8.83;;;6.37;;
14754;SDS011;7469;50.906;6.952;2024-03-17T06:07:45;10.23;;;6.80;;
14754;SDS011;7469;50.906;6.952;2024-03-17T06:10:12;10.33;;;6.67;;
14754;SDS011;7469;50.906;6.952;2024-03-17T06:12:39;9.90;;;6.60;;
14754;SDS011;7469;50.906;6.952;2024-03-17T06:15:07;11.77;;;6.87;;
14754;SDS011;7469;50.906;6.952;2024-03-17T06:17:34;10.93;;;6.87;;
14754;SDS011;7469;50.906;6.952;2024-03-17T06:20:01;11.20;;;7.10;;
14754;SDS011;7469;50.906;6.952;2024-03-17T06:22:30;10.40;;;7.27;;
14754;SDS011;7469;50.906;6.952;2024-03-17T06:24:57;11.37;;;7.47;;
14754;SDS011;7469;50.906;6.952;2024-03-17T06:27:24;8.87;;;7.00;;
14754;SDS011;7469;50.906;6.952;2024-03-17T06:29:51;10.40;;;7.07;;
14754;SDS011;7469;50.906;6.952;2024-03-17T06:32:18;13.07;;;7.53;;
14754;SDS011;7469;50.906;6.952;2024-03-17T06:34:45;13.50;;;7.63;;
14754;SDS011;7469;50.906;6.952;2024-03-17T06:37:13;9.67;;;7.03;;
14754;SDS011;7469;50.906;6.952;2024-03-17T06:39:41;11.67;;;6.60;;
14754;SDS011;7469;50.906;6.952;2024-03-17T06:42:08;11.80;;;7.60;;
14754;SDS011;7469;50.906;6.952;2024-03-17T06:44:36;9.50;;;7.57;;
14754;SDS011;7469;50.906;6.952;2024-03-17T06:47:05;10.73;;;7.23;;
14754;SDS011;7469;50.906;6.952;2024-03-17T06:49:32;9.53;;;6.63;;
14754;SDS011;7469;50.906;6.952;2024-03-17T06:51:59;12.70;;;7.47;;
14754;SDS011;7469;50.906;6.952;2024-03-17T06:54:26;10.20;;;7.50;;
14754;SDS011;7469;50.906;6.952;2024-03-17T06:56:54;11.80;;;7.90;;
14754;SDS011;7469;50.906;6.952;2024-03-17T06:59:21;10.17;;;6.83;;
14754;SDS011;7469;50.906;6.952;2024-03-17T07:01:49;11.43;;;7.47;;
14754;SDS011;7469;50.906;6.952;2024-03-17T07:04:16;11.00;;;8.20;;
14754;SDS011;7469;50.906;6.952;2024-03-17T07:06:43;13.53;;;7.40;;
14754;SDS011;7469;50.906;6.952;2024-03-17T07:09:10;10.63;;;7.00;;
14754;SDS011;7469;50.906;6.952;2024-03-17T07:11:37;9.47;;;6.50;;
14754;SDS011;7469;50.906;6.952;2024-03-17T07:14:05;8.20;;;6.80;;
14754;SDS011;7469;50.906;6.952;2024-03-17T07:16:32;7.63;;;6.30;;
14754;SDS011;7469;50.906;6.952;2024-03-17T07:19:01;9.13;;;6.30;;
14754;SDS011;7469;50.906;6.952;2024-03-17T07:21:30;9.47;;;6.20;;
14754;SDS011;7469;50.906;6.952;2024-03-17T07:23:57;7.77;;;6.23;;
14754;SDS011;7469;50.906;6.952;2024-03-17T07:26:24;10.47;;;5.87;;
14754;SDS011;7469;50.906;6.952;2024-03-17T07:28:52;9.47;;;6.20;;
14754;SDS011;7469;50.906;6.952;2024-03-17T07:31:20;7.73;;;6.30;;
14754;SDS011;7469;50.906;6.952;2024-03-17T07:33:47;10.90;;;6.50;;
14754;SDS011;7469;50.906;6.952;2024-03-17T07:36:14;8.93;;;6.10;;
14754;SDS011;7469;50.906;6.952;2024-03-17T07:38:41;9.57;;;5.90;;
14754;SDS011;7469;50.906;6.952;2024-03-17T07:41:08;7.50;;;6.23;;
14754;SDS011;7469;50.906;6.952;2024-03-17T07:43:36;7.97;;;5.83;;
14754;SDS011;7469;50.906;6.952;2024-03-17T07:46:04;7.10;;;6.10;;
14754;SDS011;7469;50.906;6.952;2024-03-17T07:48:34;7.33;;;5.30;;
14754;SDS011;7469;50.906;6.952;2024-03-17T07:51:03;7.47;;;5.60;;
14754;SDS011;7469;50.906;6.952;2024-03-17T07:53:31;7.63;;;5.40;;
14754;SDS011;7469;50.906;6.952;2024-03-17T07:55:59;6.00;;;5.30;;
14754;SDS011;7469;50.906;6.952;2024-03-17T07:58:27;10.90;;;5.43;;
14754;SDS011;7469;50.906;6.952;2024-03-17T08:00:56;8.00;;;5.70;;
14754;SDS011;7469;50.906;6.952;2024-03-17T08:03:26;8.07;;;5.40;;
14754;SDS011;7469;50.906;6.952;2024-03-17T08:05:54;7.67;;;5.17;;
14754;SDS011;7469;50.906;6.952;2024-03-17T08:08:21;6.87;;;5.17;;
14754;SDS011;7469;50.906;6.952;2024-03-17T08:10:49;6.53;;;5.20;;
14754;SDS011;7469;50.906;6.952;2024-03-17T08:13:16;7.40;;;5.23;;
14754;SDS011;7469;50.906;6.952;2024-03-17T08:15:44;6.23;;;5.17;;
14754;SDS011;7469;50.906;6.952;2024-03-17T08:18:12;7.20;;;4.63;;
14754;SDS011;7469;50.906;6.952;2024-03-17T08:20:39;6.93;;;5.00;;
14754;SDS011;7469;50.906;6.952;2024-03-17T08:23:09;6.67;;;4.87;;
14754;SDS011;7469;50.906;6.952;2024-03-17T08:25:37;6.43;;;4.50;;
14754;SDS011;7469;50.906;6.952;2024-03-17T08:28:04;5.40;;;4.53;;
14754;SDS011;7469;50.906;6.952;2024-03-17T08:30:32;8.67;;;4.83;;
14754;SDS011;7469;50.906;6.952;2024-03-17T08:32:59;8.07;;;4.40;;
14754;SDS011;7469;50.906;6.952;2024-03-17T08:35:26;7.53;;;5.13;;
14754;SDS011;7469;50.906;6.952;2024-03-17T08:37:53;6.50;;;4.60;;
14754;SDS011;7469;50.906;6.952;2024-03-17T08:40:22;6.03;;;4.33;;
14754;SDS011;7469;50.906;6.952;2024-03-17T08:42:49;6.23;;;4.53;;
14754;SDS011;7469;50.906;6.952;2024-03-17T08:45:17;5.60;;;4.80;;
14754;SDS011;7469;50.906;6.952;2024-03-17T08:47:44;6.83;;;4.30;;
14754;SDS011;7469;50.906;6.952;2024-03-17T08:50:11;8.83;;;4.67;;
14754;SDS011;7469;50.906;6.952;2024-03-17T08:52:38;4.97;;;4.47;;
14754;SDS011;7469;50.906;6.952;2024-03-17T08:55:05;4.93;;;4.43;;
14754;SDS011;7469;50.906;6.952;2024-03-17T08:57:40;4.97;;;3.80;;
14754;SDS011;7469;50.906;6.952;2024-03-17T09:00:08;7.63;;;4.43;;
14754;SDS011;7469;50.906;6.952;2024-03-17T09:02:35;4.47;;;4.03;;
14754;SDS011;7469;50.906;6.952;2024-03-17T09:05:03;6.87;;;4.60;;
14754;SDS011;7469;50.906;6.952;2024-03-17T09:07:30;4.53;;;4.10;;
14754;SDS011;7469;50.906;6.952;2024-03-17T09:09:57;6.47;;;3.97;;
14754;SDS011;7469;50.906;6.952;2024-03-17T09:12:25;5.87;;;3.77;;
14754;SDS011;7469;50.906;6.952;2024-03-17T09:14:54;7.70;;;4.20;;
14754;SDS011;7469;50.906;6.952;2024-03-17T09:17:21;5.33;;;4.00;;
14754;SDS011;7469;50.906;6.952;2024-03-17T09:19:47;6.33;;;3.73;;
14754;SDS011;7469;50.906;6.952;2024-03-17T09:22:14;5.80;;;4.13;;
14754;SDS011;7469;50.906;6.952;2024-03-17T09:24:41;3.77;;;3.33;;
14754;SDS011;7469;50.906;6.952;2024-03-17T09:27:09;3.20;;;2.90;;
14754;SDS011;7469;50.906;6.952;2024-03-17T09:29:36;3.57;;;2.97;;
14754;SDS011;7469;50.906;6.952;2024-03-17T09:32:04;5.93;;;2.70;;
14754;SDS011;7469;50.906;6.952;2024-03-17T09:34:31;6.00;;;2.93;;
14754;SDS011;7469;50.906;6.952;2024-03-17T09:36:58;4.57;;;2.80;;
14754;SDS011;7469;50.906;6.952;2024-03-17T09:39:26;4.07;;;2.53;;
14754;SDS011;7469;50.906;6.952;2024-03-17T09:41:53;4.20;;;2.60;;
14754;SDS011;7469;50.906;6.952;2024-03-17T09:44:20;3.40;;;2.87;;
14754;SDS011;7469;50.906;6.952;2024-03-17T09:46:47;6.07;;;2.97;;
14754;SDS011;7469;50.906;6.952;2024-03-17T09:49:16;2.60;;;2.40;;
14754;SDS011;7469;50.906;6.952;2024-03-17T09:51:43;3.27;;;2.60;;
14754;SDS011;7469;50.906;6.952;2024-03-17T09:54:15;3.83;;;2.70;;
14754;SDS011;7469;50.906;6.952;2024-03-17T09:56:44;3.33;;;2.93;;
14754;SDS011;7469;50.906;6.952;2024-03-17T09:59:11;2.93;;;2.57;;
14754;SDS011;7469;50.906;6.952;2024-03-17T10:01:38;4.87;;;2.80;;
14754;SDS011;7469;50.906;6.952;2024-03-17T10:04:05;5.40;;;2.93;;
14754;SDS011;7469;50.906;6.952;2024-03-17T10:06:44;4.23;;;2.67;;
14754;SDS011;7469;50.906;6.952;2024-03-17T10:09:14;5.47;;;2.77;;
14754;SDS011;7469;50.906;6.952;2024-03-17T10:11:46;4.43;;;3.33;;
14754;SDS011;7469;50.906;6.952;2024-03-17T10:14:16;5.07;;;2.53;;
14754;SDS011;7469;50.906;6.952;2024-03-17T10:16:43;4.30;;;3.23;;
14754;SDS011;7469;50.906;6.952;2024-03-17T10:19:11;5.30;;;2.57;;
14754;SDS011;7469;50.906;6.952;2024-03-17T10:21:41;3.43;;;2.80;;
14754;SDS011;7469;50.906;6.952;2024-03-17T10:24:09;7.17;;;2.90;;
14754;SDS011;7469;50.906;6.952;2024-03-17T10:26:38;4.90;;;2.90;;
14754;SDS011;7469;50.906;6.952;2024-03-17T10:29:19;4.17;;;2.90;;
14754;SDS011;7469;50.906;6.952;2024-03-17T10:31:49;3.10;;;2.80;;
14754;SDS011;7469;50.906;6.952;2024-03-17T10:34:17;3.73;;;2.57;;
14754;SDS011;7469;50.906;6.952;2024-03-17T10:36:46;4.17;;;2.70;;
14754;SDS011;7469;50.906;6.952;2024-03-17T10:39:22;4.47;;;2.87;;
14754;SDS011;7469;50.906;6.952;2024-03-17T10:41:56;4.17;;;2.80;;
14754;SDS011;7469;50.906;6.952;2024-03-17T10:44:25;4.00;;;3.10;;
14754;SDS011;7469;50.906;6.952;2024-03-17T10:46:52;5.20;;;3.70;;
14754;SDS011;7469;50.906;6.952;2024-03-17T10:49:23;4.00;;;2.80;;
14754;SDS011;7469;50.906;6.952;2024-03-17T10:51:56;5.73;;;2.90;;
14754;SDS011;7469;50.906;6.952;2024-03-17T10:54:25;3.10;;;2.60;;
14754;SDS011;7469;50.906;6.952;2024-03-17T10:56:54;4.03;;;2.90;;
14754;SDS011;7469;50.906;6.952;2024-03-17T10:59:25;3.67;;;2.43;;
14754;SDS011;7469;50.906;6.952;2024-03-17T11:02:08;4.00;;;2.93;;
14754;SDS011;7469;50.906;6.952;2024-03-17T11:04:44;3.97;;;2.73;;
14754;SDS011;7469;50.906;6.952;2024-03-17T11:07:15;3.57;;;2.90;;
14754;SDS011;7469;50.906;6.952;2024-03-17T11:09:44;4.83;;;2.80;;
14754;SDS011;7469;50.906;6.952;2024-03-17T11:20:56;4.37;;;2.47;;
14754;SDS011;7469;50.906;6.952;2024-03-17T11:23:28;3.10;;;2.80;;
14754;SDS011;7469;50.906;6.952;2024-03-17T11:25:56;2.63;;;2.40;;
14754;SDS011;7469;50.906;6.952;2024-03-17T11:31:31;5.10;;;2.47;;
14754;SDS011;7469;50.906;6.952;2024-03-17T11:37:03;3.83;;;2.67;;
14754;SDS011;7469;50.906;6.952;2024-03-17T11:39:50;3.40;;;2.77;;
14754;SDS011;7469;50.906;6.952;2024-03-17T11:42:21;5.00;;;3.20;;
14754;SDS011;7469;50.906;6.952;2024-03-17T11:45:01;4.17;;;3.00;;
14754;SDS011;7469;50.906;6.952;2024-03-17T11:47:38;4.57;;;2.87;;
14754;SDS011;7469;50.906;6.952;2024-03-17T11:50:07;5.60;;;3.07;;
14754;SDS011;7469;50.906;6.952;2024-03-17T11:52:36;3.13;;;2.73;;
14754;SDS011;7469;50.906;6.952;2024-03-17T11:55:05;3.47;;;2.53;;
14754;SDS011;7469;50.906;6.952;2024-03-17T11:57:41;4.47;;;3.07;;
14754;SDS011;7469;50.906;6.952;2024-03-17T12:00:15;5.00;;;2.90;;
14754;SDS011;7469;50.906;6.952;2024-03-17T12:02:47;5.77;;;2.97;;
14754;SDS011;7469;50.906;6.952;2024-03-17T12:05:15;4.00;;;2.77;;
14754;SDS011;7469;50.906;6.952;2024-03-17T12:07:42;4.87;;;3.00;;
14754;SDS011;7469;50.906;6.952;2024-03-17T12:10:11;4.97;;;2.90;;
14754;SDS011;7469;50.906;6.952;2024-03-17T12:12:38;5.50;;;3.30;;
14754;SDS011;7469;50.906;6.952;2024-03-17T12:15:16;3.37;;;2.57;;
14754;SDS011;7469;50.906;6.952;2024-03-17T12:17:44;3.40;;;2.97;;
14754;SDS011;7469;50.906;6.952;2024-03-17T12:20:17;4.20;;;3.10;;
14754;SDS011;7469;50.906;6.952;2024-03-17T12:22:44;3.77;;;3.13;;
14754;SDS011;7469;50.906;6.952;2024-03-17T12:25:16;4.33;;;3.10;;
14754;SDS011;7469;50.906;6.952;2024-03-17T12:27:44;4.27;;;2.90;;
14754;SDS011;7469;50.906;6.952;2024-03-17T12:30:12;5.50;;;3.17;;
14754;SDS011;7469;50.906;6.952;2024-03-17T12:32:38;3.50;;;2.50;;
14754;SDS011;7469;50.906;6.952;2024-03-17T12:35:11;4.73;;;2.90;;
14754;SDS011;7469;50.906;6.952;2024-03-17T12:37:39;3.73;;;2.90;;
14754;SDS011;7469;50.906;6.952;2024-03-17T12:40:06;4.90;;;2.77;;
14754;SDS011;7469;50.906;6.952;2024-03-17T12:42:47;3.67;;;2.67;;
14754;SDS011;7469;50.906;6.952;2024-03-17T12:45:18;5.23;;;2.70;;
14754;SDS011;7469;50.906;6.952;2024-03-17T12:47:46;5.63;;;2.60;;
14754;SDS011;7469;50.906;6.952;2024-03-17T12:50:14;5.03;;;3.10;;
14754;SDS011;7469;50.906;6.952;2024-03-17T12:52:40;4.10;;;2.73;;
14754;SDS011;7469;50.906;6.952;2024-03-17T12:55:19;4.80;;;2.87;;
14754;SDS011;7469;50.906;6.952;2024-03-17T12:58:07;3.40;;;2.53;;
14754;SDS011;7469;50.906;6.952;2024-03-17T13:00:59;4.53;;;2.90;;
14754;SDS011;7469;50.906;6.952;2024-03-17T13:03:28;4.97;;;2.73;;
14754;SDS011;7469;50.906;6.952;2024-03-17T13:05:57;4.03;;;2.70;;
14754;SDS011;7469;50.906;6.952;2024-03-17T13:08:24;5.63;;;2.67;;
14754;SDS011;7469;50.906;6.952;2024-03-17T13:10:53;6.27;;;3.17;;
14754;SDS011;7469;50.906;6.952;2024-03-17T13:13:21;5.63;;;2.90;;
14754;SDS011;7469;50.906;6.952;2024-03-17T13:15:48;4.20;;;3.07;;
14754;SDS011;7469;50.906;6.952;2024-03-17T13:18:16;4.43;;;2.90;;
14754;SDS011;7469;50.906;6.952;2024-03-17T13:20:48;6.43;;;3.03;;
14754;SDS011;7469;50.906;6.952;2024-03-17T13:23:17;4.30;;;3.17;;
14754;SDS011;7469;50.906;6.952;2024-03-17T13:25:44;5.23;;;3.23;;
14754;SDS011;7469;50.906;6.952;2024-03-17T13:28:12;4.60;;;3.20;;
14754;SDS011;7469;50.906;6.952;2024-03-17T13:30:40;8.00;;;3.67;;
14754;SDS011;7469;50.906;6.952;2024-03-17T13:33:08;3.33;;;2.80;;
14754;SDS011;7469;50.906;6.952;2024-03-17T13:35:37;2.90;;;2.43;;
14754;SDS011;7469;50.906;6.952;2024-03-17T13:38:05;4.50;;;2.80;;
14754;SDS011;7469;50.906;6.952;2024-03-17T13:40:32;4.00;;;2.70;;
14754;SDS011;7469;50.906;6.952;2024-03-17T13:43:00;4.17;;;2.77;;
14754;SDS011;7469;50.906;6.952;2024-03-17T13:45:30;5.47;;;2.93;;
14754;SDS011;7469;50.906;6.952;2024-03-17T13:48:06;3.17;;;2.53;;
14754;SDS011;7469;50.906;6.952;2024-03-17T13:50:36;4.13;;;2.57;;
14754;SDS011;7469;50.906;6.952;2024-03-17T13:53:04;4.83;;;3.00;;
14754;SDS011;7469;50.906;6.952;2024-03-17T13:55:32;3.67;;;2.50;;
14754;SDS011;7469;50.906;6.952;2024-03-17T13:58:00;3.23;;;2.93;;
14754;SDS011;7469;50.906;6.952;2024-03-17T14:00:31;3.47;;;3.10;;
14754;SDS011;7469;50.906;6.952;2024-03-17T14:03:01;6.50;;;2.87;;
14754;SDS011;7469;50.906;6.952;2024-03-17T14:05:28;4.07;;;2.90;;
14754;SDS011;7469;50.906;6.952;2024-03-17T14:07:58;4.20;;;2.80;;
14754;SDS011;7469;50.906;6.952;2024-03-17T14:10:25;4.73;;;2.40;;
14754;SDS011;7469;50.906;6.952;2024-03-17T14:12:52;5.57;;;2.70;;
14754;SDS011;7469;50.906;6.952;2024-03-17T14:15:19;3.97;;;2.40;;
14754;SDS011;7469;50.906;6.952;2024-03-17T14:17:48;4.43;;;2.50;;
14754;SDS011;7469;50.906;6.952;2024-03-17T14:20:15;3.57;;;2.90;;
14754;SDS011;7469;50.906;6.952;2024-03-17T14:22:44;3.17;;;2.67;;
14754;SDS011;7469;50.906;6.952;2024-03-17T14:25:14;5.50;;;3.00;;
14754;SDS011;7469;50.906;6.952;2024-03-17T14:27:42;4.50;;;2.90;;
14754;SDS011;7469;50.906;6.952;2024-03-17T14:30:11;5.47;;;3.50;;
14754;SDS011;7469;50.906;6.952;2024-03-17T14:32:42;4.43;;;2.80;;
14754;SDS011;7469;50.906;6.952;2024-03-17T14:35:12;5.57;;;2.90;;
14754;SDS011;7469;50.906;6.952;2024-03-17T14:37:41;6.13;;;3.50;;
14754;SDS011;7469;50.906;6.952;2024-03-17T14:40:13;4.33;;;3.20;;
14754;SDS011;7469;50.906;6.952;2024-03-17T14:42:45;3.53;;;2.73;;
14754;SDS011;7469;50.906;6.952;2024-03-17T14:45:12;5.43;;;3.07;;
14754;SDS011;7469;50.906;6.952;2024-03-17T14:47:40;4.93;;;3.20;;
14754;SDS011;7469;50.906;6.952;2024-03-17T14:50:07;4.53;;;2.93;;
14754;SDS011;7469;50.906;6.952;2024-03-17T14:52:36;4.27;;;2.90;;
14754;SDS011;7469;50.906;6.952;2024-03-17T14:55:03;2.97;;;2.50;;
14754;SDS011;7469;50.906;6.952;2024-03-17T14:57:30;3.37;;;2.67;;
14754;SDS011;7469;50.906;6.952;2024-03-17T14:59:57;5.33;;;2.73;;
14754;SDS011;7469;50.906;6.952;2024-03-17T15:02:26;3.60;;;3.00;;
14754;SDS011;7469;50.906;6.952;2024-03-17T15:04:54;3.80;;;2.53;;
14754;SDS011;7469;50.906;6.952;2024-03-17T15:07:21;5.10;;;3.10;;
14754;SDS011;7469;50.906;6.952;2024-03-17T15:09:50;8.50;;;2.97;;
14754;SDS011;7469;50.906;6.952;2024-03-17T15:12:17;3.87;;;2.70;;
14754;SDS011;7469;50.906;6.952;2024-03-17T15:14:46;3.23;;;2.93;;
14754;SDS011;7469;50.906;6.952;2024-03-17T15:17:13;5.03;;;2.63;;
14754;SDS011;7469;50.906;6.952;2024-03-17T15:19:41;6.83;;;3.10;;